sensor_id;sensor_type;location;lat;lon;timestamp;pressure;altitude;pressure_sealevel;temperature;humidity
16613;BME280;8419;52.358;9.752;2023-02-23T00:00:43;100485.00;;;18.08;42.86
16613;BME280;8419;52.358;9.752;2023-02-23T00:03:30;100481.00;;;18.03;42.98
16613;BME280;8419;52.358;9.752;2023-02-23T00:06:16;100490.00;;;18.02;43.05
16613;BME280;8419;52.358;9.752;2023-02-23T00:09:04;100497.00;;;18.06;42.92
16613;BME280;8419;52.358;9.752;2023-02-23T00:11:55;100486.00;;;18.12;42.76
16613;BME280;8419;52.358;9.752;2023-02-23T00:14:41;100499.00;;;18.10;42.79
16613;BME280;8419;52.358;9.752;2023-02-23T00:17:28;100498.00;;;17.88;43.18
16613;BME280;8419;52.358;9.752;2023-02-23T00:20:15;100493.00;;;17.78;43.40
16613;BME280;8419;52.358;9.752;2023-02-23T00:23:01;100492.00;;;17.77;43.39
16613;BME280;8419;52.358;9.752;2023-02-23T00:25:48;100491.00;;;17.74;43.43
16613;BME280;8419;52.358;9.752;2023-02-23T00:28:34;100489.00;;;17.72;43.42
16613;BME280;8419;52.358;9.752;2023-02-23T00:31:20;100485.00;;;17.69;43.48
16613;BME280;8419;52.358;9.752;2023-02-23T00:34:11;100487.00;;;17.71;43.44
16613;BME280;8419;52.358;9.752;2023-02-23T00:36:57;100489.00;;;17.69;43.53
16613;BME280;8419;52.358;9.752;2023-02-23T00:39:43;100489.00;;;17.68;43.60
16613;BME280;8419;52.358;9.752;2023-02-23T00:42:29;100486.00;;;17.63;43.80
16613;BME280;8419;52.358;9.752;2023-02-23T00:45:16;100485.00;;;17.78;43.51
16613;BME280;8419;52.358;9.752;2023-02-23T00:48:05;100490.00;;;17.81;43.52
16613;BME280;8419;52.358;9.752;2023-02-23T00:50:58;100490.00;;;17.86;43.48
16613;BME280;8419;52.358;9.752;2023-02-23T00:53:45;100494.00;;;17.85;43.56
16613;BME280;8419;52.358;9.752;2023-02-23T00:56:30;100492.00;;;17.81;43.68
16613;BME280;8419;52.358;9.752;2023-02-23T00:59:16;100499.00;;;17.96;43.41
16613;BME280;8419;52.358;9.752;2023-02-23T01:02:03;100500.00;;;17.97;43.40
16613;BME280;8419;52.358;9.752;2023-02-23T01:04:49;100498.00;;;18.02;43.34
16613;BME280;8419;52.358;9.752;2023-02-23T01:07:34;100511.00;;;18.13;43.20
16613;BME280;8419;52.358;9.752;2023-02-23T01:10:20;100509.00;;;18.13;43.10
16613;BME280;8419;52.358;9.752;2023-02-23T01:13:08;100507.00;;;18.12;43.19
16613;BME280;8419;52.358;9.752;2023-02-23T01:15:54;100506.00;;;18.11;43.24
16613;BME280;8419;52.358;9.752;2023-02-23T01:18:41;100500.00;;;18.13;43.11
16613;BME280;8419;52.358;9.752;2023-02-23T01:21:30;100503.00;;;18.03;43.37
16613;BME280;8419;52.358;9.752;2023-02-23T01:24:16;100506.00;;;18.02;43.33
16613;BME280;8419;52.358;9.752;2023-02-23T01:27:02;100506.00;;;17.95;43.39
16613;BME280;8419;52.358;9.752;2023-02-23T01:29:48;100508.00;;;17.93;43.38
16613;BME280;8419;52.358;9.752;2023-02-23T01:32:34;100508.00;;;17.90;43.36
16613;BME280;8419;52.358;9.752;2023-02-23T01:35:21;100506.00;;;17.83;43.44
16613;BME280;8419;52.358;9.752;2023-02-23T01:38:06;100513.00;;;17.93;43.24
16613;BME280;8419;52.358;9.752;2023-02-23T01:40:52;100513.00;;;17.89;43.25
16613;BME280;8419;52.358;9.752;2023-02-23T01:43:54;100514.00;;;17.84;43.27
16613;BME280;8419;52.358;9.752;2023-02-23T01:46:42;100516.00;;;17.95;43.10
16613;BME280;8419;52.358;9.752;2023-02-23T01:49:30;100512.00;;;17.77;43.32
16613;BME280;8419;52.358;9.752;2023-02-23T01:52:19;100518.00;;;17.78;43.30
16613;BME280;8419;52.358;9.752;2023-02-23T01:55:06;100520.00;;;17.75;43.31
16613;BME280;8419;52.358;9.752;2023-02-23T01:58:04;100526.00;;;17.75;43.26
16613;BME280;8419;52.358;9.752;2023-02-23T02:00:53;100515.00;;;17.72;43.32
16613;BME280;8419;52.358;9.752;2023-02-23T02:03:42;100515.00;;;17.69;43.33
16613;BME280;8419;52.358;9.752;2023-02-23T02:06:31;100523.00;;;17.77;43.21
16613;BME280;8419;52.358;9.752;2023-02-23T02:09:18;100523.00;;;17.82;43.15
16613;BME280;8419;52.358;9.752;2023-02-23T02:12:07;100524.00;;;17.84;43.10
16613;BME280;8419;52.358;9.752;2023-02-23T02:14:56;100519.00;;;17.91;42.98
16613;BME280;8419;52.358;9.752;2023-02-23T02:17:47;100520.00;;;17.88;43.04
16613;BME280;8419;52.358;9.752;2023-02-23T02:20:49;100536.00;;;17.97;42.86
16613;BME280;8419;52.358;9.752;2023-02-23T02:27:21;100533.00;;;18.19;42.56
16613;BME280;8419;52.358;9.752;2023-02-23T02:33:58;100535.00;;;18.16;42.70
16613;BME280;8419;52.358;9.752;2023-02-23T02:37:18;100524.00;;;18.29;42.44
16613;BME280;8419;52.358;9.752;2023-02-23T02:40:10;100531.00;;;18.26;42.44
16613;BME280;8419;52.358;9.752;2023-02-23T02:43:05;100535.00;;;18.16;42.67
16613;BME280;8419;52.358;9.752;2023-02-23T02:46:00;100528.00;;;18.18;42.62
16613;BME280;8419;52.358;9.752;2023-02-23T02:48:56;100531.00;;;18.15;42.68
16613;BME280;8419;52.358;9.752;2023-02-23T02:51:47;100536.00;;;18.16;42.71
16613;BME280;8419;52.358;9.752;2023-02-23T02:54:38;100531.00;;;18.20;42.67
16613;BME280;8419;52.358;9.752;2023-02-23T02:57:27;100529.00;;;18.22;42.64
16613;BME280;8419;52.358;9.752;2023-02-23T03:00:18;100523.00;;;18.25;42.62
16613;BME280;8419;52.358;9.752;2023-02-23T03:03:36;100514.00;;;18.26;42.67
16613;BME280;8419;52.358;9.752;2023-02-23T03:06:45;100515.00;;;18.23;42.76
16613;BME280;8419;52.358;9.752;2023-02-23T03:09:53;100518.00;;;18.20;42.80
16613;BME280;8419;52.358;9.752;2023-02-23T03:13:08;100511.00;;;18.16;42.83
16613;BME280;8419;52.358;9.752;2023-02-23T03:16:22;100513.00;;;18.11;43.03
16613;BME280;8419;52.358;9.752;2023-02-23T03:19:31;100521.00;;;18.11;42.99
16613;BME280;8419;52.358;9.752;2023-02-23T03:22:46;100515.00;;;18.07;43.05
16613;BME280;8419;52.358;9.752;2023-02-23T03:26:00;100512.00;;;18.07;43.12
16613;BME280;8419;52.358;9.752;2023-02-23T03:29:12;100518.00;;;18.06;43.13
16613;BME280;8419;52.358;9.752;2023-02-23T03:32:24;100517.00;;;18.09;43.12
16613;BME280;8419;52.358;9.752;2023-02-23T03:35:34;100521.00;;;18.11;43.12
16613;BME280;8419;52.358;9.752;2023-02-23T03:38:45;100518.00;;;18.06;43.22
16613;BME280;8419;52.358;9.752;2023-02-23T03:41:53;100516.00;;;18.09;43.19
16613;BME280;8419;52.358;9.752;2023-02-23T03:45:00;100520.00;;;18.09;43.19
16613;BME280;8419;52.358;9.752;2023-02-23T03:48:09;100522.00;;;18.08;43.27
16613;BME280;8419;52.358;9.752;2023-02-23T03:51:14;100521.00;;;18.15;43.13
16613;BME280;8419;52.358;9.752;2023-02-23T03:54:24;100522.00;;;18.13;43.17
16613;BME280;8419;52.358;9.752;2023-02-23T03:57:33;100521.00;;;18.11;43.27
16613;BME280;8419;52.358;9.752;2023-02-23T04:00:42;100523.00;;;18.15;43.20
16613;BME280;8419;52.358;9.752;2023-02-23T04:03:49;100526.00;;;18.09;43.31
16613;BME280;8419;52.358;9.752;2023-02-23T04:06:56;100525.00;;;18.09;43.40
16613;BME280;8419;52.358;9.752;2023-02-23T04:10:02;100523.00;;;18.14;43.28
16613;BME280;8419;52.358;9.752;2023-02-23T04:13:12;100522.00;;;18.13;43.28
16613;BME280;8419;52.358;9.752;2023-02-23T04:16:02;100527.00;;;18.17;43.23
16613;BME280;8419;52.358;9.752;2023-02-23T04:18:49;100521.00;;;18.15;43.24
16613;BME280;8419;52.358;9.752;2023-02-23T04:21:34;100527.00;;;18.14;43.26
16613;BME280;8419;52.358;9.752;2023-02-23T04:24:20;100523.00;;;18.12;43.33
16613;BME280;8419;52.358;9.752;2023-02-23T04:27:06;100520.00;;;18.17;43.21
16613;BME280;8419;52.358;9.752;2023-02-23T04:29:51;100523.00;;;18.18;43.19
16613;BME280;8419;52.358;9.752;2023-02-23T04:32:37;100532.00;;;18.16;43.14
16613;BME280;8419;52.358;9.752;2023-02-23T04:35:23;100529.00;;;18.19;43.17
16613;BME280;8419;52.358;9.752;2023-02-23T04:38:10;100537.00;;;18.22;43.14
16613;BME280;8419;52.358;9.752;2023-02-23T04:40:55;100533.00;;;18.25;43.08
16613;BME280;8419;52.358;9.752;2023-02-23T04:43:41;100533.00;;;18.28;43.07
16613;BME280;8419;52.358;9.752;2023-02-23T04:46:27;100532.00;;;18.30;43.08
16613;BME280;8419;52.358;9.752;2023-02-23T04:49:13;100528.00;;;18.44;42.83
16613;BME280;8419;52.358;9.752;2023-02-23T04:51:58;100531.00;;;18.31;43.12
16613;BME280;8419;52.358;9.752;2023-02-23T04:54:44;100531.00;;;18.33;43.17
16613;BME280;8419;52.358;9.752;2023-02-23T04:57:30;100539.00;;;18.37;43.17
16613;BME280;8419;52.358;9.752;2023-02-23T05:00:17;100537.00;;;18.45;43.14
16613;BME280;8419;52.358;9.752;2023-02-23T05:03:03;100539.00;;;18.50;43.11
16613;BME280;8419;52.358;9.752;2023-02-23T05:05:49;100536.00;;;18.53;43.04
16613;BME280;8419;52.358;9.752;2023-02-23T05:08:34;100535.00;;;18.57;42.99
16613;BME280;8419;52.358;9.752;2023-02-23T05:11:20;100547.00;;;18.62;43.00
16613;BME280;8419;52.358;9.752;2023-02-23T05:14:06;100542.00;;;18.67;42.93
16613;BME280;8419;52.358;9.752;2023-02-23T05:16:53;100545.00;;;18.70;42.90
16613;BME280;8419;52.358;9.752;2023-02-23T05:19:39;100543.00;;;18.72;42.87
16613;BME280;8419;52.358;9.752;2023-02-23T05:22:25;100552.00;;;18.77;42.79
16613;BME280;8419;52.358;9.752;2023-02-23T05:25:11;100543.00;;;18.74;42.85
16613;BME280;8419;52.358;9.752;2023-02-23T05:27:57;100543.00;;;18.74;42.86
16613;BME280;8419;52.358;9.752;2023-02-23T05:30:43;100536.00;;;18.74;42.74
16613;BME280;8419;52.358;9.752;2023-02-23T05:33:29;100537.00;;;18.70;42.83
16613;BME280;8419;52.358;9.752;2023-02-23T05:36:16;100540.00;;;18.67;42.92
16613;BME280;8419;52.358;9.752;2023-02-23T05:39:03;100535.00;;;18.57;43.05
16613;BME280;8419;52.358;9.752;2023-02-23T05:41:49;100546.00;;;18.69;42.83
16613;BME280;8419;52.358;9.752;2023-02-23T05:44:34;100541.00;;;18.74;42.73
16613;BME280;8419;52.358;9.752;2023-02-23T05:47:21;100539.00;;;18.71;42.78
16613;BME280;8419;52.358;9.752;2023-02-23T05:50:08;100546.00;;;18.74;42.74
16613;BME280;8419;52.358;9.752;2023-02-23T05:52:55;100539.00;;;18.74;42.75
16613;BME280;8419;52.358;9.752;2023-02-23T05:55:41;100539.00;;;18.70;42.80
16613;BME280;8419;52.358;9.752;2023-02-23T05:58:27;100545.00;;;18.67;42.87
16613;BME280;8419;52.358;9.752;2023-02-23T06:01:12;100541.00;;;18.61;42.95
16613;BME280;8419;52.358;9.752;2023-02-23T06:03:58;100540.00;;;18.61;42.98
16613;BME280;8419;52.358;9.752;2023-02-23T06:06:44;100544.00;;;18.50;43.13
16613;BME280;8419;52.358;9.752;2023-02-23T06:09:31;100545.00;;;18.45;43.25
16613;BME280;8419;52.358;9.752;2023-02-23T06:12:16;100540.00;;;18.42;43.31
16613;BME280;8419;52.358;9.752;2023-02-23T06:15:03;100548.00;;;18.46;43.20
16613;BME280;8419;52.358;9.752;2023-02-23T06:17:51;100544.00;;;18.53;43.07
16613;BME280;8419;52.358;9.752;2023-02-23T06:20:38;100541.00;;;18.52;43.06
16613;BME280;8419;52.358;9.752;2023-02-23T06:23:27;100539.00;;;18.52;43.09
16613;BME280;8419;52.358;9.752;2023-02-23T06:26:14;100547.00;;;18.55;43.02
16613;BME280;8419;52.358;9.752;2023-02-23T06:28:59;100544.00;;;18.58;42.93
16613;BME280;8419;52.358;9.752;2023-02-23T06:31:45;100548.00;;;18.53;43.06
16613;BME280;8419;52.358;9.752;2023-02-23T06:34:31;100548.00;;;18.52;43.11
16613;BME280;8419;52.358;9.752;2023-02-23T06:37:19;100556.00;;;18.51;43.13
16613;BME280;8419;52.358;9.752;2023-02-23T06:40:11;100552.00;;;18.47;43.20
16613;BME280;8419;52.358;9.752;2023-02-23T06:42:57;100563.00;;;18.49;43.27
16613;BME280;8419;52.358;9.752;2023-02-23T06:45:44;100565.00;;;18.52;43.20
16613;BME280;8419;52.358;9.752;2023-02-23T06:48:30;100567.00;;;18.54;43.16
16613;BME280;8419;52.358;9.752;2023-02-23T06:51:19;100563.00;;;18.52;43.21
16613;BME280;8419;52.358;9.752;2023-02-23T06:54:05;100565.00;;;18.53;43.23
16613;BME280;8419;52.358;9.752;2023-02-23T06:56:51;100574.00;;;18.36;43.65
16613;BME280;8419;52.358;9.752;2023-02-23T06:59:37;100571.00;;;18.50;43.36
16613;BME280;8419;52.358;9.752;2023-02-23T07:02:23;100574.00;;;18.50;43.34
16613;BME280;8419;52.358;9.752;2023-02-23T07:05:09;100582.00;;;18.51;43.36
16613;BME280;8419;52.358;9.752;2023-02-23T07:07:55;100586.00;;;18.56;43.30
16613;BME280;8419;52.358;9.752;2023-02-23T07:10:41;100580.00;;;18.57;43.23
16613;BME280;8419;52.358;9.752;2023-02-23T07:13:26;100584.00;;;18.58;43.28
16613;BME280;8419;52.358;9.752;2023-02-23T07:16:12;100592.00;;;18.63;43.23
16613;BME280;8419;52.358;9.752;2023-02-23T07:19:00;100585.00;;;18.70;43.14
16613;BME280;8419;52.358;9.752;2023-02-23T07:21:46;100589.00;;;18.68;43.17
16613;BME280;8419;52.358;9.752;2023-02-23T07:24:31;100598.00;;;18.67;43.21
16613;BME280;8419;52.358;9.752;2023-02-23T07:27:17;100604.00;;;18.70;43.21
16613;BME280;8419;52.358;9.752;2023-02-23T07:30:04;100599.00;;;18.72;43.14
16613;BME280;8419;52.358;9.752;2023-02-23T07:32:49;100596.00;;;18.69;43.24
16613;BME280;8419;52.358;9.752;2023-02-23T07:35:35;100608.00;;;18.74;43.24
16613;BME280;8419;52.358;9.752;2023-02-23T07:38:20;100606.00;;;18.81;43.14
16613;BME280;8419;52.358;9.752;2023-02-23T07:41:06;100606.00;;;18.79;43.16
16613;BME280;8419;52.358;9.752;2023-02-23T07:43:52;100606.00;;;18.81;43.17
16613;BME280;8419;52.358;9.752;2023-02-23T07:46:37;100614.00;;;18.79;43.17
16613;BME280;8419;52.358;9.752;2023-02-23T07:49:23;100613.00;;;18.74;43.25
16613;BME280;8419;52.358;9.752;2023-02-23T07:52:09;100612.00;;;18.75;43.23
16613;BME280;8419;52.358;9.752;2023-02-23T07:54:55;100617.00;;;18.73;43.28
16613;BME280;8419;52.358;9.752;2023-02-23T07:57:41;100613.00;;;18.63;43.42
16613;BME280;8419;52.358;9.752;2023-02-23T08:00:27;100612.00;;;18.55;43.56
16613;BME280;8419;52.358;9.752;2023-02-23T08:03:13;100619.00;;;18.56;43.57
16613;BME280;8419;52.358;9.752;2023-02-23T08:05:59;100609.00;;;18.46;43.67
16613;BME280;8419;52.358;9.752;2023-02-23T08:08:44;100611.00;;;18.33;43.90
16613;BME280;8419;52.358;9.752;2023-02-23T08:11:30;100615.00;;;18.26;43.99
16613;BME280;8419;52.358;9.752;2023-02-23T08:14:16;100609.00;;;18.12;44.25
16613;BME280;8419;52.358;9.752;2023-02-23T08:17:06;100615.00;;;18.08;44.37
16613;BME280;8419;52.358;9.752;2023-02-23T08:19:51;100619.00;;;18.09;44.42
16613;BME280;8419;52.358;9.752;2023-02-23T08:22:37;100620.00;;;18.08;44.48
16613;BME280;8419;52.358;9.752;2023-02-23T08:25:23;100629.00;;;18.08;44.53
16613;BME280;8419;52.358;9.752;2023-02-23T08:28:08;100627.00;;;18.15;44.47
16613;BME280;8419;52.358;9.752;2023-02-23T08:30:54;100630.00;;;18.12;44.55
16613;BME280;8419;52.358;9.752;2023-02-23T08:33:40;100619.00;;;18.15;44.57
16613;BME280;8419;52.358;9.752;2023-02-23T08:36:26;100629.00;;;18.15;44.62
16613;BME280;8419;52.358;9.752;2023-02-23T08:39:11;100639.00;;;18.17;44.64
16613;BME280;8419;52.358;9.752;2023-02-23T08:41:57;100647.00;;;18.16;44.70
16613;BME280;8419;52.358;9.752;2023-02-23T08:44:43;100639.00;;;18.08;44.92
16613;BME280;8419;52.358;9.752;2023-02-23T08:47:28;100645.00;;;18.07;44.97
16613;BME280;8419;52.358;9.752;2023-02-23T08:50:14;100652.00;;;18.08;44.99
16613;BME280;8419;52.358;9.752;2023-02-23T08:53:00;100647.00;;;18.06;45.01
16613;BME280;8419;52.358;9.752;2023-02-23T08:55:45;100660.00;;;17.95;45.28
16613;BME280;8419;52.358;9.752;2023-02-23T08:58:32;100656.00;;;17.93;45.37
16613;BME280;8419;52.358;9.752;2023-02-23T09:01:19;100655.00;;;17.95;45.46
16613;BME280;8419;52.358;9.752;2023-02-23T09:04:06;100658.00;;;18.05;45.41
16613;BME280;8419;52.358;9.752;2023-02-23T09:06:52;100660.00;;;18.12;45.22
16613;BME280;8419;52.358;9.752;2023-02-23T09:09:38;100668.00;;;18.12;45.23
16613;BME280;8419;52.358;9.752;2023-02-23T09:12:24;100665.00;;;18.01;45.33
16613;BME280;8419;52.358;9.752;2023-02-23T09:15:11;100669.00;;;18.13;45.15
16613;BME280;8419;52.358;9.752;2023-02-23T09:18:00;100673.00;;;18.06;45.30
16613;BME280;8419;52.358;9.752;2023-02-23T09:20:46;100667.00;;;17.90;45.51
16613;BME280;8419;52.358;9.752;2023-02-23T09:23:32;100679.00;;;17.86;45.56
16613;BME280;8419;52.358;9.752;2023-02-23T09:26:18;100677.00;;;17.83;45.64
16613;BME280;8419;52.358;9.752;2023-02-23T09:29:05;100680.00;;;18.02;45.32
16613;BME280;8419;52.358;9.752;2023-02-23T09:31:50;100685.00;;;17.94;45.44
16613;BME280;8419;52.358;9.752;2023-02-23T09:34:36;100684.00;;;18.06;45.31
16613;BME280;8419;52.358;9.752;2023-02-23T09:37:22;100677.00;;;18.11;45.23
16613;BME280;8419;52.358;9.752;2023-02-23T09:40:15;100686.00;;;18.18;45.23
16613;BME280;8419;52.358;9.752;2023-02-23T09:43:06;100685.00;;;18.26;45.14
16613;BME280;8419;52.358;9.752;2023-02-23T09:45:58;100685.00;;;18.29;45.08
16613;BME280;8419;52.358;9.752;2023-02-23T09:48:48;100688.00;;;18.31;44.95
16613;BME280;8419;52.358;9.752;2023-02-23T09:51:39;100686.00;;;18.36;44.85
16613;BME280;8419;52.358;9.752;2023-02-23T09:54:31;100691.00;;;18.39;44.81
16613;BME280;8419;52.358;9.752;2023-02-23T09:57:25;100687.00;;;18.40;44.81
16613;BME280;8419;52.358;9.752;2023-02-23T10:00:27;100697.00;;;18.34;44.91
16613;BME280;8419;52.358;9.752;2023-02-23T10:03:22;100698.00;;;18.35;44.90
16613;BME280;8419;52.358;9.752;2023-02-23T10:06:13;100691.00;;;18.33;44.90
16613;BME280;8419;52.358;9.752;2023-02-23T10:09:10;100699.00;;;18.33;44.91
16613;BME280;8419;52.358;9.752;2023-02-23T10:12:08;100700.00;;;18.35;44.83
16613;BME280;8419;52.358;9.752;2023-02-23T10:15:05;100700.00;;;18.35;44.87
16613;BME280;8419;52.358;9.752;2023-02-23T10:18:05;100708.00;;;18.30;44.92
16613;BME280;8419;52.358;9.752;2023-02-23T10:20:58;100705.00;;;18.27;45.00
16613;BME280;8419;52.358;9.752;2023-02-23T10:23:52;100708.00;;;18.24;45.05
16613;BME280;8419;52.358;9.752;2023-02-23T10:26:41;100712.00;;;18.19;45.12
16613;BME280;8419;52.358;9.752;2023-02-23T10:29:36;100705.00;;;18.18;45.11
16613;BME280;8419;52.358;9.752;2023-02-23T10:32:28;100709.00;;;18.21;45.13
16613;BME280;8419;52.358;9.752;2023-02-23T10:35:19;100709.00;;;18.21;45.14
16613;BME280;8419;52.358;9.752;2023-02-23T10:38:07;100711.00;;;18.29;45.00
16613;BME280;8419;52.358;9.752;2023-02-23T10:40:55;100706.00;;;18.29;45.05
16613;BME280;8419;52.358;9.752;2023-02-23T10:43:41;100709.00;;;18.21;45.23
16613;BME280;8419;52.358;9.752;2023-02-23T10:46:36;100710.00;;;18.33;45.03
16613;BME280;8419;52.358;9.752;2023-02-23T10:49:27;100706.00;;;18.33;45.00
16613;BME280;8419;52.358;9.752;2023-02-23T10:52:17;100713.00;;;18.33;44.97
16613;BME280;8419;52.358;9.752;2023-02-23T10:55:07;100715.00;;;18.34;44.98
16613;BME280;8419;52.358;9.752;2023-02-23T10:58:07;100709.00;;;18.40;44.93
16613;BME280;8419;52.358;9.752;2023-02-23T11:00:56;100710.00;;;18.44;44.88
16613;BME280;8419;52.358;9.752;2023-02-23T11:03:45;100713.00;;;18.38;44.86
16613;BME280;8419;52.358;9.752;2023-02-23T11:06:36;100706.00;;;18.38;44.90
16613;BME280;8419;52.358;9.752;2023-02-23T11:09:25;100699.00;;;18.37;44.87
16613;BME280;8419;52.358;9.752;2023-02-23T11:12:18;100711.00;;;18.42;44.87
16613;BME280;8419;52.358;9.752;2023-02-23T11:15:26;100707.00;;;18.45;44.83
16613;BME280;8419;52.358;9.752;2023-02-23T11:18:20;100703.00;;;18.49;44.83
16613;BME280;8419;52.358;9.752;2023-02-23T11:21:12;100695.00;;;18.52;44.81
16613;BME280;8419;52.358;9.752;2023-02-23T11:24:09;100690.00;;;18.63;44.69
16613;BME280;8419;52.358;9.752;2023-02-23T11:27:03;100692.00;;;18.75;44.56
16613;BME280;8419;52.358;9.752;2023-02-23T11:29:53;100691.00;;;18.81;44.52
16613;BME280;8419;52.358;9.752;2023-02-23T11:32:40;100687.00;;;18.88;44.39
16613;BME280;8419;52.358;9.752;2023-02-23T11:35:29;100685.00;;;18.93;44.40
16613;BME280;8419;52.358;9.752;2023-02-23T11:38:22;100683.00;;;18.96;44.30
16613;BME280;8419;52.358;9.752;2023-02-23T11:41:19;100677.00;;;18.99;44.32
16613;BME280;8419;52.358;9.752;2023-02-23T11:44:05;100682.00;;;18.97;44.24
16613;BME280;8419;52.358;9.752;2023-02-23T11:46:51;100680.00;;;18.90;44.13
16613;BME280;8419;52.358;9.752;2023-02-23T11:49:37;100679.00;;;18.83;44.27
16613;BME280;8419;52.358;9.752;2023-02-23T11:52:26;100683.00;;;18.81;44.23
16613;BME280;8419;52.358;9.752;2023-02-23T11:55:16;100679.00;;;18.69;44.42
16613;BME280;8419;52.358;9.752;2023-02-23T11:58:16;100677.00;;;18.69;44.54
16613;BME280;8419;52.358;9.752;2023-02-23T12:01:07;100676.00;;;18.75;44.55
16613;BME280;8419;52.358;9.752;2023-02-23T12:03:57;100671.00;;;18.78;44.40
16613;BME280;8419;52.358;9.752;2023-02-23T12:06:42;100667.00;;;18.76;44.45
16613;BME280;8419;52.358;9.752;2023-02-23T12:09:32;100667.00;;;18.69;44.44
16613;BME280;8419;52.358;9.752;2023-02-23T12:12:21;100667.00;;;18.65;44.51
16613;BME280;8419;52.358;9.752;2023-02-23T12:15:17;100660.00;;;18.57;44.56
16613;BME280;8419;52.358;9.752;2023-02-23T12:18:09;100668.00;;;18.64;44.58
16613;BME280;8419;52.358;9.752;2023-02-23T12:21:03;100655.00;;;18.56;44.78
16613;BME280;8419;52.358;9.752;2023-02-23T12:24:09;100660.00;;;18.52;44.75
16613;BME280;8419;52.358;9.752;2023-02-23T12:26:59;100654.00;;;18.65;44.60
16613;BME280;8419;52.358;9.752;2023-02-23T12:30:01;100649.00;;;18.62;44.60
16613;BME280;8419;52.358;9.752;2023-02-23T12:32:52;100657.00;;;18.64;44.75
16613;BME280;8419;52.358;9.752;2023-02-23T12:35:44;100648.00;;;18.71;44.61
16613;BME280;8419;52.358;9.752;2023-02-23T12:38:40;100656.00;;;18.79;44.55
16613;BME280;8419;52.358;9.752;2023-02-23T12:41:34;100643.00;;;18.95;44.33
16613;BME280;8419;52.358;9.752;2023-02-23T12:44:30;100656.00;;;18.95;44.24
16613;BME280;8419;52.358;9.752;2023-02-23T12:47:31;100651.00;;;18.89;44.35
16613;BME280;8419;52.358;9.752;2023-02-23T12:50:26;100652.00;;;18.73;44.46
16613;BME280;8419;52.358;9.752;2023-02-23T12:53:19;100655.00;;;18.78;44.15
16613;BME280;8419;52.358;9.752;2023-02-23T12:56:33;100651.00;;;18.71;44.23
16613;BME280;8419;52.358;9.752;2023-02-23T12:59:48;100650.00;;;18.78;44.09
16613;BME280;8419;52.358;9.752;2023-02-23T13:02:42;100648.00;;;18.81;44.12
16613;BME280;8419;52.358;9.752;2023-02-23T13:05:32;100658.00;;;18.83;44.06
16613;BME280;8419;52.358;9.752;2023-02-23T13:08:34;100648.00;;;18.77;44.17
16613;BME280;8419;52.358;9.752;2023-02-23T13:11:33;100662.00;;;18.83;44.13
16613;BME280;8419;52.358;9.752;2023-02-23T13:14:29;100660.00;;;18.89;44.01
16613;BME280;8419;52.358;9.752;2023-02-23T13:17:36;100655.00;;;18.75;44.09
16613;BME280;8419;52.358;9.752;2023-02-23T13:20:27;100650.00;;;18.47;44.36
16613;BME280;8419;52.358;9.752;2023-02-23T13:23:24;100657.00;;;18.47;44.39
16613;BME280;8419;52.358;9.752;2023-02-23T13:26:21;100653.00;;;18.47;44.54
16613;BME280;8419;52.358;9.752;2023-02-23T13:29:25;100648.00;;;18.50;44.61
16613;BME280;8419;52.358;9.752;2023-02-23T13:32:13;100646.00;;;18.50;44.48
16613;BME280;8419;52.358;9.752;2023-02-23T13:35:04;100655.00;;;18.46;44.50
16613;BME280;8419;52.358;9.752;2023-02-23T13:37:53;100652.00;;;18.38;44.60
16613;BME280;8419;52.358;9.752;2023-02-23T13:40:44;100655.00;;;18.53;44.34
16613;BME280;8419;52.358;9.752;2023-02-23T13:43:36;100648.00;;;18.37;44.52
16613;BME280;8419;52.358;9.752;2023-02-23T13:46:46;100655.00;;;18.27;44.51
16613;BME280;8419;52.358;9.752;2023-02-23T13:49:36;100650.00;;;18.18;44.77
16613;BME280;8419;52.358;9.752;2023-02-23T13:52:32;100646.00;;;18.22;44.63
16613;BME280;8419;52.358;9.752;2023-02-23T13:55:46;100647.00;;;18.40;44.47
16613;BME280;8419;52.358;9.752;2023-02-23T13:58:34;100648.00;;;18.50;44.41
16613;BME280;8419;52.358;9.752;2023-02-23T14:01:29;100645.00;;;18.54;44.33
16613;BME280;8419;52.358;9.752;2023-02-23T14:04:21;100656.00;;;18.59;44.27
16613;BME280;8419;52.358;9.752;2023-02-23T14:07:16;100653.00;;;18.54;44.25
16613;BME280;8419;52.358;9.752;2023-02-23T14:10:06;100647.00;;;18.49;44.38
16613;BME280;8419;52.358;9.752;2023-02-23T14:13:07;100649.00;;;18.55;44.25
16613;BME280;8419;52.358;9.752;2023-02-23T14:16:13;100654.00;;;18.68;44.01
16613;BME280;8419;52.358;9.752;2023-02-23T14:19:15;100654.00;;;18.68;43.96
16613;BME280;8419;52.358;9.752;2023-02-23T14:28:31;100658.00;;;18.73;43.95
16613;BME280;8419;52.358;9.752;2023-02-23T14:31:20;100649.00;;;18.76;43.86
16613;BME280;8419;52.358;9.752;2023-02-23T14:34:07;100651.00;;;18.79;43.79
16613;BME280;8419;52.358;9.752;2023-02-23T14:36:53;100652.00;;;18.70;43.94
16613;BME280;8419;52.358;9.752;2023-02-23T14:39:41;100655.00;;;18.66;44.00
16613;BME280;8419;52.358;9.752;2023-02-23T14:42:27;100657.00;;;18.63;44.06
16613;BME280;8419;52.358;9.752;2023-02-23T14:45:19;100652.00;;;18.55;44.18
16613;BME280;8419;52.358;9.752;2023-02-23T14:48:11;100655.00;;;18.46;44.33
16613;BME280;8419;52.358;9.752;2023-02-23T14:51:12;100653.00;;;18.45;44.42
16613;BME280;8419;52.358;9.752;2023-02-23T14:54:10;100652.00;;;18.41;44.50
16613;BME280;8419;52.358;9.752;2023-02-23T14:57:01;100652.00;;;18.35;44.52
16613;BME280;8419;52.358;9.752;2023-02-23T14:59:56;100654.00;;;18.33;44.62
16613;BME280;8419;52.358;9.752;2023-02-23T15:02:54;100660.00;;;18.39;44.52
16613;BME280;8419;52.358;9.752;2023-02-23T15:05:42;100662.00;;;18.36;44.55
16613;BME280;8419;52.358;9.752;2023-02-23T15:08:29;100652.00;;;18.32;44.68
16613;BME280;8419;52.358;9.752;2023-02-23T15:11:16;100652.00;;;18.35;44.49
16613;BME280;8419;52.358;9.752;2023-02-23T15:14:03;100661.00;;;18.26;44.55
16613;BME280;8419;52.358;9.752;2023-02-23T15:16:49;100656.00;;;18.08;44.82
16613;BME280;8419;52.358;9.752;2023-02-23T15:19:36;100654.00;;;18.04;44.93